createdAt,value
2023-08-29T00:00:12.451Z,100202.34
2023-08-29T00:05:09.129Z,100211.75
2023-08-29T00:10:02.973Z,100214.03
2023-08-29T00:14:57.549Z,100183.34
2023-08-29T00:19:52.227Z,100200.41
2023-08-29T00:24:45.854Z,100207.22
2023-08-29T00:29:39.042Z,100214.28
2023-08-29T00:34:33.709Z,100220.31
2023-08-29T00:39:28.320Z,100215.31
2023-08-29T00:44:21.499Z,100183.97
2023-08-29T00:49:19.667Z,100222.50
2023-08-29T00:54:13.380Z,100217.81
2023-08-29T00:59:08.093Z,100232.22
2023-08-29T01:04:02.243Z,100217.59
2023-08-29T01:08:55.903Z,100227.84
2023-08-29T01:13:56.516Z,100215.72
2023-08-29T01:18:53.887Z,100222.28
2023-08-29T01:23:56.344Z,100217.75
2023-08-29T01:28:51.847Z,100212.41
2023-08-29T01:33:45.537Z,100190.06
2023-08-29T01:38:38.760Z,100205.78
2023-08-29T01:43:32.133Z,100200.50
2023-08-29T01:48:26.837Z,100199.75
2023-08-29T01:53:20.267Z,100193.28
2023-08-29T01:58:15.695Z,100199.28
2023-08-29T02:03:09.806Z,100195.88
2023-08-29T02:08:04.993Z,100181.19
2023-08-29T02:12:58.645Z,100174.06
2023-08-29T02:17:52.464Z,100186.41
2023-08-29T02:22:45.655Z,100134.78
2023-08-29T02:27:40.742Z,100190.78
2023-08-29T02:32:36.204Z,100191.59
2023-08-29T02:37:29.615Z,100195.88
2023-08-29T02:42:24.623Z,100192.75
2023-08-29T02:47:19.676Z,100186.97
2023-08-29T02:52:13.016Z,100179.56
2023-08-29T02:57:06.632Z,100167.25
2023-08-29T03:02:01.691Z,100168.00
2023-08-29T03:06:56.462Z,100168.34
2023-08-29T03:11:50.641Z,100151.88
2023-08-29T03:16:44.122Z,100160.66
2023-08-29T03:21:40.624Z,100118.00
2023-08-29T03:26:35.358Z,100141.22
2023-08-29T03:31:29.286Z,100119.16
2023-08-29T03:36:22.584Z,100146.03
2023-08-29T03:41:15.847Z,100134.53
2023-08-29T03:46:11.278Z,100146.56
2023-08-29T03:51:07.763Z,100138.88
2023-08-29T03:56:03.825Z,100137.94
2023-08-29T04:00:58.321Z,100150.88
2023-08-29T04:05:53.220Z,100152.19
2023-08-29T04:10:46.538Z,100146.84
2023-08-29T04:15:39.888Z,100131.72
2023-08-29T04:20:33.459Z,100140.84
2023-08-29T04:25:28.413Z,100132.91
2023-08-29T04:30:21.877Z,100148.03
2023-08-29T04:35:15.187Z,100111.22
2023-08-29T04:40:11.648Z,100133.69
2023-08-29T04:45:07.400Z,100120.13
2023-08-29T04:50:01.857Z,100141.75
2023-08-29T04:54:55.142Z,100136.53
2023-08-29T04:59:48.360Z,100151.72
2023-08-29T05:04:44.183Z,100152.81
2023-08-29T05:09:37.507Z,100149.91
2023-08-29T05:14:31.312Z,100154.63
2023-08-29T05:19:25.090Z,100140.34
2023-08-29T05:24:19.756Z,100146.53
2023-08-29T05:29:12.890Z,100159.72
2023-08-29T05:34:06.240Z,100154.59
2023-08-29T05:39:00.560Z,100158.81
2023-08-29T05:43:56.261Z,100150.00
2023-08-29T05:48:49.565Z,100130.66
2023-08-29T05:53:43.267Z,100132.13
2023-08-29T05:58:36.989Z,100148.59
2023-08-29T06:03:31.858Z,100143.06
2023-08-29T06:08:25.664Z,100146.22
2023-08-29T06:13:19.509Z,100132.84
2023-08-29T06:18:12.811Z,100148.97
2023-08-29T06:23:08.511Z,100131.50
2023-08-29T06:28:01.713Z,100143.16
2023-08-29T06:32:55.619Z,100129.47
2023-08-29T06:37:48.921Z,100130.78
2023-08-29T06:42:43.980Z,100139.63
2023-08-29T06:47:37.166Z,100133.94
2023-08-29T06:52:30.248Z,100121.81
2023-08-29T06:57:23.337Z,100139.53
2023-08-29T07:02:17.942Z,100055.53
2023-08-29T07:07:11.044Z,100136.34
2023-08-29T07:12:04.188Z,100118.34
2023-08-29T07:17:09.502Z,100123.06
2023-08-29T07:22:17.472Z,100136.66
2023-08-29T07:27:16.926Z,100114.31
2023-08-29T07:32:10.225Z,100118.72
2023-08-29T07:37:05.610Z,100130.13
2023-08-29T07:42:01.052Z,100115.09
2023-08-29T07:47:12.111Z,100117.00
2023-08-29T07:52:07.911Z,100134.28
2023-08-29T07:57:02.852Z,100125.09
2023-08-29T08:01:56.149Z,100108.91
2023-08-29T08:06:49.320Z,100113.78
2023-08-29T08:11:42.573Z,100106.72
2023-08-29T08:16:40.413Z,100124.50
2023-08-29T08:21:33.629Z,100110.94
2023-08-29T08:26:26.962Z,100073.41
2023-08-29T08:31:20.360Z,100115.13
2023-08-29T08:36:15.007Z,100088.31
2023-08-29T08:41:08.522Z,100087.19
2023-08-29T08:46:02.204Z,100097.34
2023-08-29T08:50:57.034Z,100091.06
2023-08-29T08:55:52.042Z,100070.19
2023-08-29T09:00:45.414Z,100062.75
2023-08-29T09:05:38.579Z,100048.63
2023-08-29T09:10:34.928Z,100051.56
2023-08-29T09:15:29.704Z,100044.75
2023-08-29T09:20:25.370Z,100038.19
2023-08-29T09:25:18.854Z,99944.59
2023-08-29T09:30:16.009Z,100034.09
2023-08-29T09:35:14.459Z,100036.63
2023-08-29T09:40:25.762Z,99977.13
2023-08-29T09:45:24.417Z,100030.31
2023-08-29T09:50:19.551Z,100019.47
2023-08-29T09:55:16.232Z,100013.00
2023-08-29T10:00:14.000Z,100026.88
2023-08-29T10:05:11.855Z,99928.63
2023-08-29T10:10:09.647Z,100030.66
2023-08-29T10:15:05.256Z,100012.00
2023-08-29T10:20:01.760Z,99901.97
2023-08-29T10:24:56.367Z,100009.13
2023-08-29T10:29:51.369Z,99996.66
2023-08-29T10:34:44.645Z,99999.34
2023-08-29T10:39:37.872Z,99999.97
2023-08-29T10:44:45.314Z,99995.41
2023-08-29T10:49:46.241Z,99978.56
2023-08-29T10:54:40.139Z,99985.97
2023-08-29T10:59:35.532Z,99987.09
2023-08-29T11:04:33.246Z,99978.00
2023-08-29T11:09:30.740Z,99969.34
2023-08-29T11:14:24.184Z,99970.59
2023-08-29T11:19:20.199Z,99974.91
2023-08-29T11:24:16.789Z,99943.25
2023-08-29T11:29:12.281Z,99951.88
2023-08-29T11:34:05.830Z,99950.09
2023-08-29T11:38:59.747Z,99934.75
2023-08-29T11:44:16.955Z,99917.53
2023-08-29T11:49:15.806Z,99922.16
2023-08-29T11:54:43.735Z,99940.16
2023-08-29T11:59:40.801Z,99934.38
2023-08-29T12:04:35.397Z,99913.09
2023-08-29T12:09:29.125Z,99905.28
2023-08-29T12:14:25.973Z,99902.00
2023-08-29T12:19:19.760Z,99911.19
2023-08-29T12:24:15.712Z,99890.25
2023-08-29T12:29:08.897Z,99892.53
2023-08-29T12:34:02.880Z,99880.91
2023-08-29T12:38:56.816Z,99865.22
2023-08-29T12:43:51.514Z,99875.19
2023-08-29T12:48:44.950Z,99871.31
2023-08-29T12:53:38.467Z,99875.03
2023-08-29T12:58:31.678Z,99844.66
2023-08-29T13:03:26.768Z,99860.16
2023-08-29T13:08:20.822Z,99873.16
2023-08-29T13:13:14.133Z,99854.03
2023-08-29T13:18:07.808Z,99831.47
2023-08-29T13:23:03.201Z,99850.84
2023-08-29T13:27:56.992Z,99864.13
2023-08-29T13:32:50.790Z,99861.41
2023-08-29T13:37:45.321Z,99822.59
2023-08-29T13:42:40.010Z,99848.53
2023-08-29T13:47:33.644Z,99849.44
2023-08-29T13:52:26.905Z,99809.06
2023-08-29T13:57:20.168Z,99832.84
2023-08-29T14:02:14.984Z,99834.47
2023-08-29T14:07:11.573Z,99768.72
2023-08-29T14:12:05.223Z,99805.91
2023-08-29T14:16:58.476Z,99818.88
2023-08-29T14:21:53.143Z,99812.09
2023-08-29T14:26:47.067Z,99801.84
2023-08-29T14:31:40.416Z,99804.44
2023-08-29T14:36:33.893Z,99794.63
2023-08-29T14:41:28.716Z,99787.66
2023-08-29T14:46:22.177Z,99765.16
2023-08-29T14:51:15.853Z,99775.03
2023-08-29T14:56:09.113Z,99751.22
2023-08-29T15:01:04.016Z,99768.38
2023-08-29T15:05:58.306Z,99768.69
2023-08-29T15:10:52.315Z,99777.50
2023-08-29T15:15:45.779Z,99697.63
2023-08-29T15:20:42.807Z,99774.94
2023-08-29T15:25:36.581Z,99773.91
2023-08-29T15:30:29.769Z,99779.91
2023-08-29T15:35:23.031Z,99788.81
2023-08-29T15:40:17.722Z,99787.94
2023-08-29T15:45:11.690Z,99807.28
2023-08-29T15:50:05.229Z,99808.00
2023-08-29T15:54:58.566Z,99816.13
2023-08-29T15:59:54.250Z,99706.34
2023-08-29T16:04:47.545Z,99774.84
2023-08-29T16:09:40.856Z,99811.91
2023-08-29T16:14:34.064Z,99822.69
2023-08-29T16:19:29.165Z,99823.63
2023-08-29T16:24:22.357Z,99827.66
2023-08-29T16:29:16.023Z,99799.81
2023-08-29T16:34:09.553Z,99824.47
2023-08-29T16:39:04.602Z,99834.59
2023-08-29T16:43:58.063Z,99829.03
2023-08-29T16:48:51.354Z,99831.16
2023-08-29T16:53:44.784Z,99829.09
2023-08-29T16:58:39.586Z,99827.41
2023-08-29T17:03:33.016Z,99845.06
2023-08-29T17:08:26.693Z,99859.78
2023-08-29T17:13:20.011Z,99864.19
2023-08-29T17:18:14.727Z,99849.78
2023-08-29T17:23:09.493Z,99866.03
2023-08-29T17:28:02.748Z,99839.94
2023-08-29T17:32:56.029Z,99847.25
2023-08-29T17:37:50.711Z,99869.16
2023-08-29T17:42:44.630Z,99878.13
2023-08-29T17:47:38.240Z,99876.06
2023-08-29T17:52:32.281Z,99868.78
2023-08-29T17:57:26.903Z,99873.94
2023-08-29T18:02:20.187Z,99867.28
2023-08-29T18:07:14.744Z,99874.56
2023-08-29T18:12:11.205Z,99879.44
2023-08-29T18:17:06.000Z,99880.00
2023-08-29T18:21:59.230Z,99878.09
2023-08-29T18:26:52.493Z,99862.22
2023-08-29T18:31:45.713Z,99875.16
2023-08-29T18:36:40.404Z,99875.97
2023-08-29T18:41:33.782Z,99870.06
2023-08-29T18:46:26.993Z,99882.47
2023-08-29T18:51:20.433Z,99854.91
2023-08-29T18:56:18.148Z,99865.69
2023-08-29T19:01:12.013Z,99875.13
2023-08-29T19:06:09.006Z,99876.19
2023-08-29T19:11:06.226Z,99893.44
2023-08-29T19:16:01.420Z,99886.38
2023-08-29T19:20:54.920Z,99886.06
2023-08-29T19:25:48.528Z,99880.41
2023-08-29T19:30:41.948Z,99884.72
2023-08-29T19:35:39.193Z,99892.22
2023-08-29T19:40:33.000Z,99893.78
2023-08-29T19:45:27.264Z,99901.31
2023-08-29T19:50:20.682Z,99900.22
2023-08-29T19:55:15.581Z,99900.69
2023-08-29T20:00:10.867Z,99900.34
2023-08-29T20:05:07.162Z,99800.59
2023-08-29T20:10:01.179Z,99910.72
2023-08-29T20:14:55.925Z,99913.66
2023-08-29T20:19:49.199Z,99913.00
2023-08-29T20:24:42.422Z,99911.63
2023-08-29T20:29:35.777Z,99910.19
2023-08-29T20:34:30.514Z,99920.34
2023-08-29T20:39:23.786Z,99921.59
2023-08-29T20:44:17.883Z,99926.94
2023-08-29T20:49:13.168Z,99917.19
2023-08-29T20:54:08.680Z,99918.13
2023-08-29T20:59:02.508Z,99912.38
2023-08-29T21:03:55.881Z,99926.88
2023-08-29T21:08:49.208Z,99904.97
2023-08-29T21:13:43.801Z,99925.41
2023-08-29T21:18:37.396Z,99925.56
2023-08-29T21:23:31.065Z,99930.94
2023-08-29T21:28:25.409Z,99909.16
2023-08-29T21:33:20.312Z,99914.88
2023-08-29T21:38:13.992Z,99911.72
2023-08-29T21:43:08.949Z,99919.66
2023-08-29T21:48:03.033Z,99899.09
2023-08-29T21:52:58.959Z,99918.47
2023-08-29T21:57:52.140Z,99901.72
2023-08-29T22:02:45.444Z,99882.25
2023-08-29T22:07:39.410Z,99920.50
2023-08-29T22:12:34.045Z,99909.09
2023-08-29T22:17:27.457Z,99914.72
2023-08-29T22:22:20.805Z,99882.81
2023-08-29T22:27:14.139Z,99867.28
2023-08-29T22:32:10.237Z,99902.16
2023-08-29T22:37:05.502Z,99909.38
2023-08-29T22:41:58.718Z,99907.44
2023-08-29T22:46:52.062Z,99900.94
2023-08-29T22:51:47.211Z,99882.16
2023-08-29T22:56:40.542Z,99896.69
2023-08-29T23:01:33.887Z,99883.91
2023-08-29T23:06:27.197Z,99896.53
2023-08-29T23:11:21.900Z,99912.09
2023-08-29T23:16:17.330Z,99904.47
2023-08-29T23:21:10.866Z,99860.09
2023-08-29T23:26:05.661Z,99904.75
2023-08-29T23:31:00.438Z,99896.88
2023-08-29T23:35:53.636Z,99901.09
2023-08-29T23:40:49.327Z,99892.91
2023-08-29T23:45:42.583Z,99886.09
2023-08-29T23:50:37.189Z,99903.31
2023-08-29T23:55:30.394Z,99961.22
